Etusivu
METAR-TAF:

METAR-TAF

Lentoasemat :

Granite Falls Municipal Airport (Lenzen-Roe Memorial Field)

Granite Falls, Minnesota, Yhdysvallat

Leveyspiiri: 44-45-11N, Pituuspiiri: 095-33-21W, korkeus merenpinnasta: 319 m

Tämänhetkinen sää

Tämä raportti tehtiin 24 minuuttia sitten, kello 10.15 UTC
Tuuli 4 kn etelästä
Lämpötila -10°C
Kosteus 92%
Ilmanpaine 1023 hPa
Näkyvyys: 11.3 km
selkeää

METAR: KGDB 101015Z AUTO 18004KT 7SM CLR M10/M11 A3021 RMK AO2 T11021115

Aika: 04:39 (10:39 UTC)


TAF: puuttuu

Säähavainnot ja -ennusteet yli 4000 lentoasemalta (METAR- ja TAF-raportit).

Käytössä olevat sääasemat on merkitty karttaan keltaisilla ja punaisilla pisteillä.

Aseta hiiri pisteen päälle nähdäksesi sääaseman nimen.

Klikkaa sitten nähdäksesi säähavainnot ja -ennusteet.

Kartan vaihtaminen: klikkaa mustalla rastilla varustettuja vihreitä pisteitä, niin voit zoomata sisään; viivalla varustettua vihreää pistettä, niin voit zoomata ulos tai vihreitä nuolia, niin pääset viereisille kartoille.


METAR-TAF: